Darstellungsparameter: Aktuell verwendete Einstellungen:
Skalierung der Graphiken ... ?
xyx+y,   Skalierungsfaktor:      Skalierung: Modus: x, Faktor: 1
Darstellungszeitraum ... ?
Vom - - bis: - -   Zeitraum: 09.04.2020 - 11.04.2020
Min/Max/Avg-Anzeige ... ?
Zeige MMA aktuell
Zeige MMA Monat
Zeige MMA alles
Zeige --A aktuell
Zeige --A Monat
Zeige --A alles
Keine MMA-Anzeige
MMA:
Average (ber die Originaldaten)
MMA-Basis: 09.04.2020 - 11.04.2020
Quicknavigation für Darstellung... ?
Tage:      1T, 2T, 3T, 5T -1T -2T -3T -5T +1T +2T +3T +5T
Wochen: 1W, 2W, 3W -1W -2W -3W +1W +2W +3W
Monate: 1M, 3M, 6M -1M -3M -6M +1M +3M +6M
Jahre:    1J, 3J, 5J, 10J -1J -3J -5J -10J +1J +3J +5J +10J
Nutze für die Darstellung ... ?
Originaldaten oder Mittelwerte auf ...
Stundenbasis Tagesbasis Wochenbasis
Monatsbasis Jahresbasis      Datenbasis: Original-Daten
Darstellen als:
Statistik (Auto) Statistik J:M      Darstellung:
Zur Graphik,    zurück zur Übersicht aller Sensoren.
 
Tabellarische Datenbersicht: ?
 
Sensor: Nr:Datum:Temp:Abs-Feuchte:Windchill:Wind:
Aussen-T/F 1 09-04-2020 00:00:00 11.7 C 7.01 g/m*3 11.7 C 0 km/h
2 09-04-2020 00:05:00 11.6 C 7.07 g/m*3 11.6 C 0 km/h
3 09-04-2020 00:10:00 11.5 C 6.92 g/m*3 11.5 C 0 km/h
4 09-04-2020 00:15:00 11.6 C 6.96 g/m*3 11.6 C 1.6 km/h
5 09-04-2020 00:20:00 11.7 C 7.01 g/m*3 11.7 C 0 km/h
6 09-04-2020 00:25:00 11.6 C 7.07 g/m*3 11.6 C 0 km/h
7 09-04-2020 00:30:00 11.3 C 6.94 g/m*3 11.3 C 0 km/h
8 09-04-2020 00:35:00 11.1 C 6.95 g/m*3 11.1 C 0 km/h
9 09-04-2020 00:40:00 11.2 C 6.89 g/m*3 11.2 C 4.8 km/h
10 09-04-2020 00:45:00 11.2 C 6.99 g/m*3 11.2 C 3.2 km/h
11 09-04-2020 00:50:00 11.2 C 6.99 g/m*3 11.2 C 1.6 km/h
12 09-04-2020 00:55:00 11.1 C 7.05 g/m*3 11.1 C 0 km/h
13 09-04-2020 01:00:00 11.1 C 7.05 g/m*3 11.1 C 0 km/h
14 09-04-2020 01:05:00 10.9 C 7.06 g/m*3 10.9 C 0 km/h
15 09-04-2020 01:10:00 10.8 C 7.02 g/m*3 10.8 C 0 km/h
16 09-04-2020 01:15:00 10.6 C 6.93 g/m*3 10.6 C 0 km/h
17 09-04-2020 01:20:00 10.3 C 6.9 g/m*3 10.3 C 0 km/h
18 09-04-2020 01:25:00 10.1 C 6.9 g/m*3 10.1 C 4.8 km/h
19 09-04-2020 01:30:00 10 C 6.95 g/m*3 10 C 4.8 km/h
20 09-04-2020 01:35:00 10.1 C 7.19 g/m*3 10.1 C 0 km/h
21 09-04-2020 01:40:00 10.1 C 7.19 g/m*3 10.1 C 3.2 km/h
22 09-04-2020 01:45:00 10 C 7.14 g/m*3 10 C 1.6 km/h
23 09-04-2020 01:50:00 10 C 7.24 g/m*3 10 C 1.6 km/h
24 09-04-2020 01:55:00 10 C 7.24 g/m*3 10 C 0 km/h
25 09-04-2020 02:00:00 9.8 C 7.05 g/m*3 9.8 C 0 km/h
Sensor: Nr:Datum:Temp:Abs-Feuchte:Windchill:Wind:
Aussen-T/F 26 09-04-2020 02:05:00 9.7 C 7.01 g/m*3 9.7 C 0 km/h
27 09-04-2020 02:10:00 9.6 C 6.96 g/m*3 9.6 C 0 km/h
28 09-04-2020 02:15:00 9.5 C 7.01 g/m*3 9.5 C 0 km/h
29 09-04-2020 02:20:00 9.4 C 6.96 g/m*3 9.4 C 0 km/h
30 09-04-2020 02:25:00 9.4 C 7.05 g/m*3 9.4 C 0 km/h
31 09-04-2020 02:30:00 9.3 C 7.01 g/m*3 9.3 C 0 km/h
32 09-04-2020 02:35:00 9.3 C 7.1 g/m*3 9.3 C 0 km/h
33 09-04-2020 02:40:00 9.2 C 6.97 g/m*3 9.2 C 0 km/h
34 09-04-2020 02:45:00 9.2 C 6.97 g/m*3 9.2 C 0 km/h
35 09-04-2020 02:50:00 9.2 C 7.05 g/m*3 9.2 C 0 km/h
36 09-04-2020 02:55:00 9.3 C 7.01 g/m*3 9.3 C 0 km/h
37 09-04-2020 03:00:00 9.4 C 7.05 g/m*3 9.4 C 0 km/h
38 09-04-2020 03:05:00 9.5 C 7.1 g/m*3 9.5 C 0 km/h
39 09-04-2020 03:10:00 9.6 C 7.15 g/m*3 9.6 C 4.8 km/h
40 09-04-2020 03:15:00 9.7 C 7.1 g/m*3 9.7 C 3.2 km/h
41 09-04-2020 03:20:00 9.7 C 7.1 g/m*3 9.7 C 3.2 km/h
42 09-04-2020 03:25:00 9.7 C 7.19 g/m*3 9.7 C 0 km/h
43 09-04-2020 03:30:00 9.7 C 7.19 g/m*3 9.7 C 0 km/h
44 09-04-2020 03:35:00 9.7 C 7.19 g/m*3 9.7 C 0 km/h
45 09-04-2020 03:40:00 9.7 C 7.19 g/m*3 9.7 C 3.2 km/h
46 09-04-2020 03:45:00 9.8 C 7.33 g/m*3 8.75 C 8.1 km/h
47 09-04-2020 03:50:00 9.8 C 7.14 g/m*3 9.8 C 3.2 km/h
48 09-04-2020 03:55:00 9.9 C 7.19 g/m*3 9.9 C 1.6 km/h
49 09-04-2020 04:00:00 10 C 7.33 g/m*3 10 C 0 km/h
50 09-04-2020 04:05:00 10.1 C 7.38 g/m*3 10.1 C 0 km/h
Sensor: Nr:Datum:Temp:Abs-Feuchte:Windchill:Wind:
Aussen-T/F 51 09-04-2020 04:10:00 10.1 C 7.38 g/m*3 10.1 C 3.2 km/h
52 09-04-2020 04:15:00 10.1 C 7.38 g/m*3 9.48 C 6.4 km/h
53 09-04-2020 04:20:00 10.2 C 7.42 g/m*3 9.22 C 8.1 km/h
54 09-04-2020 04:25:00 10.2 C 7.42 g/m*3 9.6 C 6.4 km/h
55 09-04-2020 04:30:00 10.1 C 7.38 g/m*3 9.48 C 6.4 km/h
56 09-04-2020 04:35:00 10 C 7.33 g/m*3 10 C 4.8 km/h
57 09-04-2020 04:40:00 9.9 C 7.38 g/m*3 9.9 C 1.6 km/h
58 09-04-2020 04:45:00 9.8 C 7.33 g/m*3 9.8 C 0 km/h
59 09-04-2020 04:50:00 9.7 C 7.28 g/m*3 9.7 C 0 km/h
60 09-04-2020 04:55:00 9.6 C 7.24 g/m*3 9.6 C 0 km/h
61 09-04-2020 05:00:00 9.4 C 7.15 g/m*3 9.4 C 0 km/h
62 09-04-2020 05:05:00 9.4 C 7.15 g/m*3 9.4 C 0 km/h
63 09-04-2020 05:10:00 9.3 C 7.19 g/m*3 9.3 C 0 km/h
64 09-04-2020 05:15:00 9.2 C 7.14 g/m*3 9.2 C 0 km/h
65 09-04-2020 05:20:00 9.2 C 7.14 g/m*3 9.2 C 0 km/h
66 09-04-2020 05:25:00 9.2 C 7.14 g/m*3 9.2 C 0 km/h
67 09-04-2020 05:30:00 9.1 C 7.1 g/m*3 9.1 C 0 km/h
68 09-04-2020 05:35:00 9 C 7.14 g/m*3 9 C 0 km/h
69 09-04-2020 05:40:00 8.9 C 7.18 g/m*3 8.9 C 0 km/h
70 09-04-2020 05:45:00 8.8 C 7.14 g/m*3 8.8 C 0 km/h
71 09-04-2020 05:50:00 8.7 C 7.09 g/m*3 8.7 C 0 km/h
72 09-04-2020 05:55:00 8.6 C 7.13 g/m*3 8.6 C 0 km/h
73 09-04-2020 06:00:00 8.6 C 7.13 g/m*3 8.6 C 0 km/h
74 09-04-2020 06:05:00 8.5 C 7.09 g/m*3 8.5 C 0 km/h
75 09-04-2020 06:10:00 8.4 C 7.04 g/m*3 8.4 C 0 km/h
Sensor: Nr:Datum:Temp:Abs-Feuchte:Windchill:Wind:
Aussen-T/F 76 09-04-2020 06:15:00 8.3 C 7 g/m*3 8.3 C 0 km/h
77 09-04-2020 06:20:00 8.1 C 6.91 g/m*3 8.1 C 0 km/h
78 09-04-2020 06:25:00 7.9 C 6.82 g/m*3 7.9 C 0 km/h
79 09-04-2020 06:30:00 7.8 C 6.86 g/m*3 7.8 C 0 km/h
80 09-04-2020 06:35:00 7.7 C 6.81 g/m*3 7.7 C 0 km/h
81 09-04-2020 06:40:00 7.6 C 6.77 g/m*3 7.6 C 0 km/h
82 09-04-2020 06:45:00 7.4 C 6.76 g/m*3 7.4 C 0 km/h
83 09-04-2020 06:50:00 7.3 C 6.72 g/m*3 7.3 C 0 km/h
84 09-04-2020 06:55:00 7.3 C 6.79 g/m*3 7.3 C 0 km/h
85 09-04-2020 07:00:00 7.3 C 6.79 g/m*3 7.3 C 0 km/h
86 09-04-2020 07:05:00 7.3 C 6.79 g/m*3 7.3 C 0 km/h
87 09-04-2020 07:10:00 7.4 C 6.92 g/m*3 7.4 C 0 km/h
88 09-04-2020 07:15:00 7.5 C 6.96 g/m*3 7.5 C 0 km/h
89 09-04-2020 07:20:00 7.7 C 7.05 g/m*3 7.7 C 0 km/h
90 09-04-2020 07:25:00 7.7 C 6.97 g/m*3 7.7 C 0 km/h
91 09-04-2020 07:30:00 7.7 C 6.97 g/m*3 7.7 C 0 km/h
92 09-04-2020 07:35:00 7.7 C 6.97 g/m*3 7.7 C 0 km/h
93 09-04-2020 07:40:00 7.6 C 6.93 g/m*3 7.6 C 0 km/h
94 09-04-2020 07:45:00 7.6 C 6.93 g/m*3 7.6 C 0 km/h
95 09-04-2020 07:50:00 7.6 C 7.01 g/m*3 7.6 C 0 km/h
96 09-04-2020 07:55:00 7.6 C 7.01 g/m*3 7.6 C 0 km/h
97 09-04-2020 08:00:00 7.6 C 7.01 g/m*3 7.6 C 0 km/h
98 09-04-2020 08:05:00 7.6 C 7.01 g/m*3 7.6 C 0 km/h
99 09-04-2020 08:10:00 7.7 C 7.14 g/m*3 7.7 C 1.6 km/h
100 09-04-2020 08:15:00 7.7 C 7.14 g/m*3 7.7 C 0 km/h
Sensor: Nr:Datum:Temp:Abs-Feuchte:Windchill:Wind:
Aussen-T/F 101 09-04-2020 08:20:00 7.8 C 7.18 g/m*3 7.8 C 0 km/h
102 09-04-2020 08:25:00 7.8 C 7.18 g/m*3 7.8 C 0 km/h
103 09-04-2020 08:30:00 7.9 C 7.23 g/m*3 7.9 C 0 km/h
104 09-04-2020 08:35:00 7.9 C 7.23 g/m*3 7.9 C 0 km/h
105 09-04-2020 08:40:00 8.1 C 7.32 g/m*3 8.1 C 0 km/h
106 09-04-2020 08:45:00 8.2 C 7.37 g/m*3 8.2 C 0 km/h
107 09-04-2020 08:50:00 8.3 C 7.42 g/m*3 8.3 C 0 km/h
108 09-04-2020 08:55:00 8.4 C 7.38 g/m*3 8.4 C 0 km/h
109 09-04-2020 09:00:00 8.6 C 7.56 g/m*3 8.6 C 0 km/h
110 09-04-2020 09:05:00 8.7 C 7.52 g/m*3 8.7 C 0 km/h
111 09-04-2020 09:10:00 8.8 C 7.57 g/m*3 8.8 C 0 km/h
112 09-04-2020 09:15:00 8.9 C 7.62 g/m*3 8.9 C 0 km/h
113 09-04-2020 09:20:00 9 C 7.67 g/m*3 9 C 0 km/h
114 09-04-2020 09:25:00 9.1 C 7.72 g/m*3 9.1 C 0 km/h
115 09-04-2020 09:30:00 9.2 C 7.77 g/m*3 9.2 C 0 km/h
116 09-04-2020 09:35:00 9.4 C 7.87 g/m*3 9.4 C 0 km/h
117 09-04-2020 09:40:00 9.6 C 7.97 g/m*3 9.6 C 0 km/h
118 09-04-2020 09:45:00 9.8 C 8.07 g/m*3 9.8 C 0 km/h
119 09-04-2020 09:50:00 9.9 C 8.12 g/m*3 9.9 C 0 km/h
120 09-04-2020 09:55:00 10.1 C 8.13 g/m*3 10.1 C 0 km/h
121 09-04-2020 10:00:00 10.3 C 8.24 g/m*3 10.3 C 0 km/h
122 09-04-2020 10:05:00 10.5 C 8.34 g/m*3 10.5 C 0 km/h
123 09-04-2020 10:10:00 10.7 C 8.35 g/m*3 10.7 C 0 km/h
124 09-04-2020 10:15:00 10.9 C 8.26 g/m*3 10.9 C 0 km/h
125 09-04-2020 10:20:00 11.2 C 8.41 g/m*3 11.2 C 0 km/h
Sensor: Nr:Datum:Temp:Abs-Feuchte:Windchill:Wind:
Aussen-T/F 126 09-04-2020 10:25:00 11.6 C 8.52 g/m*3 11.6 C 0 km/h
127 09-04-2020 10:30:00 11.8 C 8.53 g/m*3 11.8 C 0 km/h
128 09-04-2020 10:35:00 12.2 C 8.63 g/m*3 12.2 C 0 km/h
129 09-04-2020 10:40:00 12.5 C 8.58 g/m*3 12.5 C 0 km/h
130 09-04-2020 10:45:00 12.8 C 8.74 g/m*3 12.8 C 0 km/h
131 09-04-2020 10:50:00 13.2 C 8.84 g/m*3 13.2 C 0 km/h
132 09-04-2020 10:55:00 13.6 C 9.06 g/m*3 13.6 C 0 km/h
133 09-04-2020 11:00:00 14 C 8.93 g/m*3 14 C 0 km/h
134 09-04-2020 11:05:00 14.4 C 8.65 g/m*3 14.4 C 0 km/h
135 09-04-2020 11:10:00 14.9 C 8.92 g/m*3 14.9 C 0 km/h
136 09-04-2020 11:15:00 15.4 C 9.07 g/m*3 15.4 C 0 km/h
137 09-04-2020 11:20:00 15.8 C 8.88 g/m*3 15.8 C 0 km/h
138 09-04-2020 11:25:00 16.3 C 8.74 g/m*3 16.3 C 1.6 km/h
139 09-04-2020 11:30:00 16.7 C 8.95 g/m*3 16.7 C 0 km/h
140 09-04-2020 11:35:00 17.1 C 8.73 g/m*3 17.1 C 0 km/h
141 09-04-2020 11:40:00 17.4 C 8.89 g/m*3 17.4 C 1.6 km/h
142 09-04-2020 11:45:00 17.7 C 8.9 g/m*3 17.7 C 0 km/h
143 09-04-2020 11:50:00 18.1 C 8.65 g/m*3 18.1 C 0 km/h
144 09-04-2020 11:55:00 18.3 C 8.91 g/m*3 18.3 C 1.6 km/h
145 09-04-2020 12:00:00 18.6 C 8.91 g/m*3 18.6 C 4.8 km/h
146 09-04-2020 12:05:00 18.8 C 8.86 g/m*3 18.8 C 3.2 km/h
147 09-04-2020 12:10:00 19.1 C 8.69 g/m*3 19.1 C 3.2 km/h
148 09-04-2020 12:15:00 19.3 C 8.79 g/m*3 19.3 C 3.2 km/h
149 09-04-2020 12:20:00 19.6 C 8.95 g/m*3 19.6 C 0 km/h
150 09-04-2020 12:25:00 19.8 C 9.05 g/m*3 19.8 C 1.6 km/h
Sensor: Nr:Datum:Temp:Abs-Feuchte:Windchill:Wind:
Aussen-T/F 151 09-04-2020 12:30:00 20.1 C 9.21 g/m*3 20.1 C 1.6 km/h
152 09-04-2020 12:35:00 20.3 C 8.97 g/m*3 20.3 C 0 km/h
153 09-04-2020 12:40:00 20.6 C 8.95 g/m*3 20.6 C 1.6 km/h
154 09-04-2020 12:45:00 20.8 C 8.69 g/m*3 20.8 C 1.6 km/h
155 09-04-2020 12:50:00 21 C 8.98 g/m*3 21 C 3.2 km/h
156 09-04-2020 12:55:00 21.2 C 9.08 g/m*3 21.2 C 1.6 km/h
157 09-04-2020 13:00:00 21.3 C 8.76 g/m*3 21.3 C 3.2 km/h
158 09-04-2020 13:05:00 21.3 C 8.95 g/m*3 21.3 C 4.8 km/h
159 09-04-2020 13:10:00 21.4 C 8.62 g/m*3 21.4 C 3.2 km/h
160 09-04-2020 13:15:00 21.6 C 8.53 g/m*3 21.6 C 0 km/h
161 09-04-2020 13:20:00 21.7 C 8.77 g/m*3 21.7 C 4.8 km/h
162 09-04-2020 13:25:00 21.8 C 8.83 g/m*3 21.8 C 4.8 km/h
163 09-04-2020 13:30:00 21.9 C 8.49 g/m*3 21.9 C 8.1 km/h
164 09-04-2020 13:35:00 22.1 C 8.78 g/m*3 22.1 C 3.2 km/h
165 09-04-2020 13:40:00 22.1 C 8 g/m*3 22.1 C 4.8 km/h
166 09-04-2020 13:45:00 22.1 C 7.61 g/m*3 22.1 C 12.9 km/h
167 09-04-2020 13:50:00 22.3 C 7.11 g/m*3 22.3 C 8.1 km/h
168 09-04-2020 13:55:00 22.3 C 7.5 g/m*3 22.3 C 9.7 km/h
169 09-04-2020 14:00:00 22.5 C 7.59 g/m*3 22.5 C 6.4 km/h
170 09-04-2020 14:05:00 22.6 C 7.23 g/m*3 22.6 C 4.8 km/h
171 09-04-2020 14:10:00 22.6 C 7.23 g/m*3 22.6 C 6.4 km/h
172 09-04-2020 14:15:00 22.7 C 7.27 g/m*3 22.7 C 4.8 km/h
173 09-04-2020 14:20:00 22.8 C 6.91 g/m*3 22.8 C 6.4 km/h
174 09-04-2020 14:25:00 23.1 C 7.03 g/m*3 23.1 C 8.1 km/h
175 09-04-2020 14:30:00 23.2 C 7.07 g/m*3 23.2 C 6.4 km/h
Sensor: Nr:Datum:Temp:Abs-Feuchte:Windchill:Wind:
Aussen-T/F 176 09-04-2020 14:35:00 23.3 C 7.11 g/m*3 23.3 C 8.1 km/h
177 09-04-2020 14:40:00 23.4 C 7.15 g/m*3 23.4 C 8.1 km/h
178 09-04-2020 14:45:00 23.5 C 7.4 g/m*3 23.5 C 6.4 km/h
179 09-04-2020 14:50:00 23.7 C 7.7 g/m*3 23.7 C 8.1 km/h
180 09-04-2020 14:55:00 23.7 C 7.49 g/m*3 23.7 C 8.1 km/h
181 09-04-2020 15:00:00 23.7 C 7.27 g/m*3 23.7 C 14.5 km/h
182 09-04-2020 15:05:00 23.7 C 7.27 g/m*3 23.7 C 12.9 km/h
183 09-04-2020 15:10:00 23.7 C 7.06 g/m*3 23.7 C 8.1 km/h
184 09-04-2020 15:15:00 23.7 C 7.06 g/m*3 23.7 C 12.9 km/h
185 09-04-2020 15:20:00 23.7 C 7.27 g/m*3 23.7 C 12.9 km/h
186 09-04-2020 15:25:00 23.6 C 7.23 g/m*3 23.6 C 12.9 km/h
187 09-04-2020 15:30:00 23.6 C 7.23 g/m*3 23.6 C 9.7 km/h
188 09-04-2020 15:35:00 23.7 C 7.7 g/m*3 23.7 C 6.4 km/h
189 09-04-2020 15:40:00 23.8 C 7.31 g/m*3 23.8 C 11.3 km/h
190 09-04-2020 15:45:00 23.8 C 7.53 g/m*3 23.8 C 14.5 km/h
191 09-04-2020 15:50:00 23.8 C 7.53 g/m*3 23.8 C 9.7 km/h
192 09-04-2020 15:55:00 23.8 C 7.31 g/m*3 23.8 C 11.3 km/h
193 09-04-2020 16:00:00 23.8 C 7.1 g/m*3 23.8 C 6.4 km/h
194 09-04-2020 16:05:00 23.8 C 7.31 g/m*3 23.8 C 12.9 km/h
195 09-04-2020 16:10:00 23.9 C 7.36 g/m*3 23.9 C 11.3 km/h
196 09-04-2020 16:15:00 24.1 C 7.44 g/m*3 24.1 C 6.4 km/h
197 09-04-2020 16:20:00 24.2 C 7.48 g/m*3 24.2 C 9.7 km/h
198 09-04-2020 16:25:00 24.3 C 7.52 g/m*3 24.3 C 16.1 km/h
199 09-04-2020 16:30:00 24.3 C 7.3 g/m*3 24.3 C 16.1 km/h
200 09-04-2020 16:35:00 24.3 C 7.3 g/m*3 24.3 C 9.7 km/h
Sensor: Nr:Datum:Temp:Abs-Feuchte:Windchill:Wind:
Aussen-T/F 201 09-04-2020 16:40:00 24.6 C 7.88 g/m*3 24.6 C 11.3 km/h
202 09-04-2020 16:45:00 24.7 C 7.47 g/m*3 24.7 C 14.5 km/h
203 09-04-2020 16:50:00 24.7 C 7.7 g/m*3 24.7 C 11.3 km/h
204 09-04-2020 16:55:00 24.9 C 7.78 g/m*3 24.9 C 9.7 km/h
205 09-04-2020 17:00:00 24.9 C 7.78 g/m*3 24.9 C 12.9 km/h
206 09-04-2020 17:05:00 24.8 C 7.51 g/m*3 24.8 C 12.9 km/h
207 09-04-2020 17:10:00 24.7 C 7.47 g/m*3 24.7 C 11.3 km/h
208 09-04-2020 17:15:00 24.8 C 7.51 g/m*3 24.8 C 8.1 km/h
209 09-04-2020 17:20:00 24.8 C 7.28 g/m*3 24.8 C 9.7 km/h
210 09-04-2020 17:25:00 24.8 C 7.51 g/m*3 24.8 C 11.3 km/h
211 09-04-2020 17:30:00 24.8 C 7.28 g/m*3 24.8 C 8.1 km/h
212 09-04-2020 17:35:00 24.7 C 7.24 g/m*3 24.7 C 11.3 km/h
213 09-04-2020 17:40:00 24.7 C 7.7 g/m*3 24.7 C 12.9 km/h
214 09-04-2020 17:45:00 24.6 C 7.43 g/m*3 24.6 C 14.5 km/h
215 09-04-2020 17:50:00 24.4 C 7.57 g/m*3 24.4 C 11.3 km/h
216 09-04-2020 17:55:00 24.4 C 7.57 g/m*3 24.4 C 11.3 km/h
217 09-04-2020 18:00:00 24.6 C 7.88 g/m*3 24.6 C 8.1 km/h
218 09-04-2020 18:05:00 24.6 C 7.65 g/m*3 24.6 C 9.7 km/h
219 09-04-2020 18:10:00 24.4 C 7.57 g/m*3 24.4 C 14.5 km/h
220 09-04-2020 18:15:00 24.2 C 7.7 g/m*3 24.2 C 9.7 km/h
221 09-04-2020 18:20:00 24.2 C 7.7 g/m*3 24.2 C 12.9 km/h
222 09-04-2020 18:25:00 24.1 C 7.66 g/m*3 24.1 C 11.3 km/h
223 09-04-2020 18:30:00 23.9 C 8 g/m*3 23.9 C 14.5 km/h
224 09-04-2020 18:35:00 23.7 C 7.91 g/m*3 23.7 C 12.9 km/h
225 09-04-2020 18:40:00 23.7 C 7.91 g/m*3 23.7 C 11.3 km/h
Sensor: Nr:Datum:Temp:Abs-Feuchte:Windchill:Wind:
Aussen-T/F 226 09-04-2020 18:45:00 23.7 C 7.7 g/m*3 23.7 C 14.5 km/h
227 09-04-2020 18:50:00 23.6 C 7.87 g/m*3 23.6 C 11.3 km/h
228 09-04-2020 18:55:00 23.4 C 7.57 g/m*3 23.4 C 8.1 km/h
229 09-04-2020 19:00:00 23.3 C 7.74 g/m*3 23.3 C 8.1 km/h
230 09-04-2020 19:05:00 23.4 C 7.99 g/m*3 23.4 C 8.1 km/h
231 09-04-2020 19:10:00 23.3 C 7.95 g/m*3 23.3 C 9.7 km/h
232 09-04-2020 19:15:00 23.2 C 7.9 g/m*3 23.2 C 3.2 km/h
233 09-04-2020 19:20:00 22.9 C 7.77 g/m*3 22.9 C 9.7 km/h
234 09-04-2020 19:25:00 22.6 C 7.83 g/m*3 22.6 C 6.4 km/h
235 09-04-2020 19:30:00 22.2 C 8.25 g/m*3 22.2 C 8.1 km/h
236 09-04-2020 19:35:00 21.9 C 8.3 g/m*3 21.9 C 8.1 km/h
237 09-04-2020 19:40:00 21.6 C 8.16 g/m*3 21.6 C 8.1 km/h
238 09-04-2020 19:45:00 21.3 C 8.02 g/m*3 21.3 C 6.4 km/h
239 09-04-2020 19:50:00 21.1 C 7.92 g/m*3 21.1 C 8.1 km/h
240 09-04-2020 19:55:00 20.9 C 8.01 g/m*3 20.9 C 6.4 km/h
241 09-04-2020 20:00:00 20.7 C 7.92 g/m*3 20.7 C 4.8 km/h
242 09-04-2020 20:05:00 20.4 C 8.49 g/m*3 20.4 C 1.6 km/h
243 09-04-2020 20:10:00 19.9 C 8.25 g/m*3 19.9 C 0 km/h
244 09-04-2020 20:15:00 19.3 C 8.46 g/m*3 19.3 C 1.6 km/h
245 09-04-2020 20:20:00 18.7 C 8.49 g/m*3 18.7 C 4.8 km/h
246 09-04-2020 20:25:00 18.2 C 8.39 g/m*3 18.2 C 4.8 km/h
247 09-04-2020 20:30:00 17.8 C 8.5 g/m*3 17.8 C 3.2 km/h
248 09-04-2020 20:35:00 17.4 C 8.45 g/m*3 17.4 C 3.2 km/h
249 09-04-2020 20:40:00 17.2 C 8.35 g/m*3 17.2 C 3.2 km/h
250 09-04-2020 20:45:00 16.9 C 8.49 g/m*3 16.9 C 4.8 km/h
Sensor: Nr:Datum:Temp:Abs-Feuchte:Windchill:Wind:
Aussen-T/F 251 09-04-2020 20:50:00 16.7 C 8.38 g/m*3 16.7 C 4.8 km/h
252 09-04-2020 20:55:00 16.4 C 8.37 g/m*3 16.4 C 0 km/h
253 09-04-2020 21:00:00 16.2 C 8.41 g/m*3 16.2 C 3.2 km/h
254 09-04-2020 21:05:00 16 C 8.31 g/m*3 16 C 1.6 km/h
255 09-04-2020 21:10:00 16.1 C 8.36 g/m*3 16.1 C 1.6 km/h
256 09-04-2020 21:15:00 16.2 C 8.27 g/m*3 16.2 C 3.2 km/h
257 09-04-2020 21:20:00 16.3 C 8.32 g/m*3 16.3 C 4.8 km/h
258 09-04-2020 21:25:00 16.3 C 8.32 g/m*3 16.3 C 3.2 km/h
259 09-04-2020 21:30:00 16.2 C 8.41 g/m*3 16.2 C 1.6 km/h
260 09-04-2020 21:35:00 16 C 8.31 g/m*3 16 C 0 km/h
261 09-04-2020 21:40:00 15.8 C 8.35 g/m*3 15.8 C 3.2 km/h
262 09-04-2020 21:45:00 15.6 C 8.25 g/m*3 15.6 C 1.6 km/h
263 09-04-2020 21:50:00 15.4 C 8.28 g/m*3 15.4 C 3.2 km/h
264 09-04-2020 21:55:00 15.2 C 8.31 g/m*3 15.2 C 0 km/h
265 09-04-2020 22:00:00 15.1 C 8.26 g/m*3 15.1 C 3.2 km/h
266 09-04-2020 22:05:00 15 C 8.21 g/m*3 15 C 1.6 km/h
267 09-04-2020 22:10:00 14.9 C 8.28 g/m*3 14.9 C 4.8 km/h
268 09-04-2020 22:15:00 14.9 C 8.28 g/m*3 14.9 C 3.2 km/h
269 09-04-2020 22:20:00 15 C 8.33 g/m*3 15 C 3.2 km/h
270 09-04-2020 22:25:00 14.9 C 8.28 g/m*3 14.9 C 3.2 km/h
271 09-04-2020 22:30:00 14.8 C 8.23 g/m*3 14.8 C 3.2 km/h
272 09-04-2020 22:35:00 14.7 C 8.31 g/m*3 14.7 C 3.2 km/h
273 09-04-2020 22:40:00 14.6 C 8.26 g/m*3 14.6 C 4.8 km/h
274 09-04-2020 22:45:00 14.4 C 8.28 g/m*3 14.4 C 3.2 km/h
275 09-04-2020 22:50:00 14.3 C 8.23 g/m*3 14.3 C 1.6 km/h
Sensor: Nr:Datum:Temp:Abs-Feuchte:Windchill:Wind:
Aussen-T/F 276 09-04-2020 22:55:00 14.2 C 8.3 g/m*3 14.2 C 6.4 km/h
277 09-04-2020 23:00:00 14.1 C 8.25 g/m*3 14.1 C 0 km/h
278 09-04-2020 23:05:00 13.9 C 8.15 g/m*3 13.9 C 1.6 km/h
279 09-04-2020 23:10:00 13.8 C 8.22 g/m*3 13.8 C 1.6 km/h
280 09-04-2020 23:15:00 13.8 C 8.22 g/m*3 13.8 C 3.2 km/h
281 09-04-2020 23:20:00 13.7 C 8.17 g/m*3 13.7 C 3.2 km/h
282 09-04-2020 23:25:00 13.6 C 8.12 g/m*3 13.6 C 0 km/h
283 09-04-2020 23:30:00 13.4 C 8.14 g/m*3 13.4 C 3.2 km/h
284 09-04-2020 23:35:00 13.3 C 8.09 g/m*3 13.3 C 3.2 km/h
285 09-04-2020 23:40:00 13.3 C 8.2 g/m*3 13.3 C 1.6 km/h
286 09-04-2020 23:45:00 13.2 C 8.15 g/m*3 13.2 C 4.8 km/h
287 09-04-2020 23:50:00 13.1 C 8.1 g/m*3 13.1 C 4.8 km/h
288 09-04-2020 23:55:00 12.9 C 8.11 g/m*3 12.9 C 4.8 km/h
289 10-04-2020 00:00:00 12.8 C 8.18 g/m*3 12.8 C 3.2 km/h
290 10-04-2020 00:05:00 12.7 C 8.13 g/m*3 12.7 C 4.8 km/h
291 10-04-2020 00:10:00 12.6 C 8.08 g/m*3 12.6 C 3.2 km/h
292 10-04-2020 00:15:00 12.4 C 8.09 g/m*3 12.4 C 3.2 km/h
293 10-04-2020 00:20:00 12.3 C 8.04 g/m*3 12.3 C 4.8 km/h
294 10-04-2020 00:25:00 12.2 C 7.99 g/m*3 12.2 C 3.2 km/h
295 10-04-2020 00:30:00 12 C 7.99 g/m*3 12 C 1.6 km/h
296 10-04-2020 00:35:00 11.9 C 8.05 g/m*3 11.9 C 0 km/h
297 10-04-2020 00:40:00 11.7 C 7.95 g/m*3 11.7 C 0 km/h
298 10-04-2020 00:45:00 11.5 C 7.85 g/m*3 11.5 C 0 km/h
299 10-04-2020 00:50:00 11.3 C 7.85 g/m*3 11.3 C 0 km/h
300 10-04-2020 00:55:00 11.1 C 7.86 g/m*3 11.1 C 0 km/h
Sensor: Nr:Datum:Temp:Abs-Feuchte:Windchill:Wind:
Aussen-T/F 301 10-04-2020 01:00:00 10.9 C 7.86 g/m*3 10.9 C 0 km/h
302 10-04-2020 01:05:00 10.8 C 7.81 g/m*3 10.8 C 0 km/h
303 10-04-2020 01:10:00 10.7 C 7.76 g/m*3 10.7 C 0 km/h
304 10-04-2020 01:15:00 10.6 C 7.71 g/m*3 10.6 C 0 km/h
305 10-04-2020 01:20:00 10.4 C 7.71 g/m*3 10.4 C 0 km/h
306 10-04-2020 01:25:00 10.3 C 7.76 g/m*3 10.3 C 0 km/h
307 10-04-2020 01:30:00 10.2 C 7.71 g/m*3 10.2 C 0 km/h
308 10-04-2020 01:35:00 10.2 C 7.71 g/m*3 10.2 C 0 km/h
309 10-04-2020 01:40:00 10.2 C 7.71 g/m*3 10.2 C 0 km/h
310 10-04-2020 01:45:00 10.1 C 7.66 g/m*3 10.1 C 0 km/h
311 10-04-2020 01:50:00 9.9 C 7.66 g/m*3 9.9 C 0 km/h
312 10-04-2020 01:55:00 9.8 C 7.61 g/m*3 9.8 C 0 km/h
313 10-04-2020 02:00:00 9.7 C 7.65 g/m*3 9.7 C 0 km/h
314 10-04-2020 02:05:00 9.6 C 7.51 g/m*3 9.6 C 0 km/h
315 10-04-2020 02:10:00 9.6 C 7.6 g/m*3 9.6 C 0 km/h
316 10-04-2020 02:15:00 9.6 C 7.6 g/m*3 9.6 C 0 km/h
317 10-04-2020 02:20:00 9.4 C 7.51 g/m*3 9.4 C 0 km/h
318 10-04-2020 02:25:00 9.3 C 7.46 g/m*3 9.3 C 0 km/h
319 10-04-2020 02:30:00 9.3 C 7.46 g/m*3 9.3 C 0 km/h
320 10-04-2020 02:35:00 9.2 C 7.41 g/m*3 9.2 C 0 km/h
321 10-04-2020 02:40:00 9.1 C 7.45 g/m*3 9.1 C 0 km/h
322 10-04-2020 02:45:00 9 C 7.41 g/m*3 9 C 0 km/h
323 10-04-2020 02:50:00 8.9 C 7.36 g/m*3 8.9 C 0 km/h
324 10-04-2020 02:55:00 8.8 C 7.31 g/m*3 8.8 C 0 km/h
325 10-04-2020 03:00:00 8.8 C 7.4 g/m*3 8.8 C 0 km/h
Sensor: Nr:Datum:Temp:Abs-Feuchte:Windchill:Wind:
Aussen-T/F 326 10-04-2020 03:05:00 8.7 C 7.35 g/m*3 8.7 C 0 km/h
327 10-04-2020 03:10:00 8.6 C 7.3 g/m*3 8.6 C 0 km/h
328 10-04-2020 03:15:00 8.4 C 7.21 g/m*3 8.4 C 0 km/h
329 10-04-2020 03:20:00 8.4 C 7.21 g/m*3 8.4 C 0 km/h
330 10-04-2020 03:25:00 8.3 C 7.25 g/m*3 8.3 C 0 km/h
331 10-04-2020 03:30:00 8.2 C 7.2 g/m*3 8.2 C 0 km/h
332 10-04-2020 03:35:00 8.1 C 7.16 g/m*3 8.1 C 0 km/h
333 10-04-2020 03:40:00 8.1 C 7.16 g/m*3 8.1 C 0 km/h
334 10-04-2020 03:45:00 8.1 C 7.24 g/m*3 8.1 C 0 km/h
335 10-04-2020 03:50:00 8 C 7.19 g/m*3 8 C 0 km/h
336 10-04-2020 03:55:00 7.9 C 7.15 g/m*3 7.9 C 0 km/h
337 10-04-2020 04:00:00 7.8 C 7.1 g/m*3 7.8 C 0 km/h
338 10-04-2020 04:05:00 7.7 C 7.05 g/m*3 7.7 C 0 km/h
339 10-04-2020 04:10:00 7.7 C 7.05 g/m*3 7.7 C 0 km/h
340 10-04-2020 04:15:00 7.6 C 7.01 g/m*3 7.6 C 0 km/h
341 10-04-2020 04:20:00 7.6 C 7.09 g/m*3 7.6 C 0 km/h
342 10-04-2020 04:25:00 7.5 C 7.04 g/m*3 7.5 C 0 km/h
343 10-04-2020 04:30:00 7.4 C 7 g/m*3 7.4 C 0 km/h
344 10-04-2020 04:35:00 7.3 C 6.95 g/m*3 7.3 C 0 km/h
345 10-04-2020 04:40:00 7.3 C 7.03 g/m*3 7.3 C 0 km/h
346 10-04-2020 04:45:00 7.2 C 6.99 g/m*3 7.2 C 0 km/h
347 10-04-2020 04:50:00 7.2 C 6.99 g/m*3 7.2 C 0 km/h
348 10-04-2020 04:55:00 7.1 C 6.94 g/m*3 7.1 C 0 km/h
349 10-04-2020 05:00:00 7.1 C 6.94 g/m*3 7.1 C 0 km/h
350 10-04-2020 05:05:00 7.1 C 6.94 g/m*3 7.1 C 0 km/h
Sensor: Nr:Datum:Temp:Abs-Feuchte:Windchill:Wind:
Aussen-T/F 351 10-04-2020 05:10:00 6.9 C 6.85 g/m*3 6.9 C 0 km/h
352 10-04-2020 05:15:00 7 C 6.97 g/m*3 7 C 0 km/h
353 10-04-2020 05:20:00 7 C 6.97 g/m*3 7 C 0 km/h
354 10-04-2020 05:25:00 7.1 C 7.02 g/m*3 7.1 C 0 km/h
355 10-04-2020 05:30:00 7.1 C 7.02 g/m*3 7.1 C 0 km/h
356 10-04-2020 05:35:00 7 C 6.97 g/m*3 7 C 0 km/h
357 10-04-2020 05:40:00 6.9 C 6.93 g/m*3 6.9 C 0 km/h
358 10-04-2020 05:45:00 6.8 C 6.88 g/m*3 6.8 C 0 km/h
359 10-04-2020 05:50:00 6.7 C 6.84 g/m*3 6.7 C 0 km/h
360 10-04-2020 05:55:00 6.6 C 6.79 g/m*3 6.6 C 0 km/h
361 10-04-2020 06:00:00 6.5 C 6.75 g/m*3 6.5 C 0 km/h
362 10-04-2020 06:05:00 6.4 C 6.71 g/m*3 6.4 C 0 km/h
363 10-04-2020 06:10:00 6.5 C 6.82 g/m*3 6.5 C 0 km/h
364 10-04-2020 06:15:00 6.4 C 6.78 g/m*3 6.4 C 0 km/h
365 10-04-2020 06:20:00 6.4 C 6.78 g/m*3 6.4 C 0 km/h
366 10-04-2020 06:25:00 6.3 C 6.74 g/m*3 6.3 C 0 km/h
367 10-04-2020 06:30:00 6.3 C 6.74 g/m*3 6.3 C 0 km/h
368 10-04-2020 06:35:00 6.3 C 6.81 g/m*3 6.3 C 0 km/h
369 10-04-2020 06:40:00 6.2 C 6.69 g/m*3 6.2 C 0 km/h
370 10-04-2020 06:45:00 6.2 C 6.69 g/m*3 6.2 C 0 km/h
371 10-04-2020 06:50:00 6.1 C 6.72 g/m*3 6.1 C 0 km/h
372 10-04-2020 06:55:00 6.1 C 6.72 g/m*3 6.1 C 0 km/h
373 10-04-2020 07:00:00 6.1 C 6.72 g/m*3 6.1 C 0 km/h
374 10-04-2020 07:05:00 6.1 C 6.72 g/m*3 6.1 C 0 km/h
375 10-04-2020 07:10:00 6 C 6.68 g/m*3 6 C 0 km/h
Sensor: Nr:Datum:Temp:Abs-Feuchte:Windchill:Wind:
Aussen-T/F 376 10-04-2020 07:15:00 6 C 6.68 g/m*3 6 C 0 km/h
377 10-04-2020 07:20:00 6 C 6.68 g/m*3 6 C 0 km/h
378 10-04-2020 07:25:00 6 C 6.68 g/m*3 6 C 0 km/h
379 10-04-2020 07:30:00 6 C 6.75 g/m*3 6 C 0 km/h
380 10-04-2020 07:35:00 6 C 6.75 g/m*3 6 C 0 km/h
381 10-04-2020 07:40:00 6 C 6.75 g/m*3 6 C 0 km/h
382 10-04-2020 07:45:00 6.1 C 6.79 g/m*3 6.1 C 0 km/h
383 10-04-2020 07:50:00 6.1 C 6.79 g/m*3 6.1 C 1.6 km/h
384 10-04-2020 07:55:00 6.2 C 6.84 g/m*3 6.2 C 0 km/h
385 10-04-2020 08:00:00 6.2 C 6.84 g/m*3 6.2 C 0 km/h
386 10-04-2020 08:05:00 6.3 C 6.88 g/m*3 6.3 C 0 km/h
387 10-04-2020 08:10:00 6.3 C 6.88 g/m*3 6.3 C 0 km/h
388 10-04-2020 08:15:00 6.3 C 6.88 g/m*3 6.3 C 0 km/h
389 10-04-2020 08:20:00 6.4 C 6.93 g/m*3 6.4 C 0 km/h
390 10-04-2020 08:25:00 6.5 C 7.05 g/m*3 6.5 C 0 km/h
391 10-04-2020 08:30:00 6.6 C 7.1 g/m*3 6.6 C 0 km/h
392 10-04-2020 08:35:00 6.6 C 7.1 g/m*3 6.6 C 0 km/h
393 10-04-2020 08:40:00 6.7 C 7.14 g/m*3 6.7 C 0 km/h
394 10-04-2020 08:45:00 6.7 C 7.14 g/m*3 6.7 C 0 km/h
395 10-04-2020 08:50:00 6.8 C 7.19 g/m*3 6.8 C 0 km/h
396 10-04-2020 08:55:00 6.9 C 7.24 g/m*3 6.9 C 0 km/h
397 10-04-2020 09:00:00 7.1 C 7.33 g/m*3 7.1 C 0 km/h
398 10-04-2020 09:05:00 7.2 C 7.38 g/m*3 7.2 C 0 km/h
399 10-04-2020 09:10:00 7.4 C 7.48 g/m*3 7.4 C 0 km/h
400 10-04-2020 09:15:00 7.6 C 7.57 g/m*3 7.6 C 0 km/h
Sensor: Nr:Datum:Temp:Abs-Feuchte:Windchill:Wind:
Aussen-T/F 401 10-04-2020 09:20:00 7.7 C 7.62 g/m*3 7.7 C 0 km/h
402 10-04-2020 09:25:00 7.8 C 7.67 g/m*3 7.8 C 0 km/h
403 10-04-2020 09:30:00 8 C 7.77 g/m*3 8 C 0 km/h
404 10-04-2020 09:35:00 8.1 C 7.82 g/m*3 8.1 C 0 km/h
405 10-04-2020 09:40:00 8.3 C 7.84 g/m*3 8.3 C 0 km/h
406 10-04-2020 09:45:00 8.4 C 7.89 g/m*3 8.4 C 0 km/h
407 10-04-2020 09:50:00 8.6 C 7.99 g/m*3 8.6 C 0 km/h
408 10-04-2020 09:55:00 8.8 C 8.09 g/m*3 8.8 C 0 km/h
409 10-04-2020 10:00:00 9 C 8.11 g/m*3 9 C 0 km/h
410 10-04-2020 10:05:00 9.2 C 8.22 g/m*3 9.2 C 0 km/h
411 10-04-2020 10:10:00 9.4 C 8.23 g/m*3 9.4 C 0 km/h
412 10-04-2020 10:15:00 9.7 C 8.39 g/m*3 9.7 C 0 km/h
413 10-04-2020 10:20:00 9.9 C 8.4 g/m*3 9.9 C 0 km/h
414 10-04-2020 10:25:00 10.3 C 8.52 g/m*3 10.3 C 0 km/h
415 10-04-2020 10:30:00 10.6 C 8.59 g/m*3 10.6 C 0 km/h
416 10-04-2020 10:35:00 10.9 C 8.75 g/m*3 10.9 C 0 km/h
417 10-04-2020 10:40:00 11.3 C 8.77 g/m*3 11.3 C 0 km/h
418 10-04-2020 10:45:00 11.6 C 8.83 g/m*3 11.6 C 4.8 km/h
419 10-04-2020 10:50:00 12 C 8.95 g/m*3 12 C 1.6 km/h
420 10-04-2020 10:55:00 12.5 C 9.02 g/m*3 12.5 C 3.2 km/h
421 10-04-2020 11:00:00 12.9 C 9.13 g/m*3 12.9 C 0 km/h
422 10-04-2020 11:05:00 13.2 C 9.07 g/m*3 13.2 C 0 km/h
423 10-04-2020 11:10:00 13.7 C 9.24 g/m*3 13.7 C 1.6 km/h
424 10-04-2020 11:15:00 14.1 C 9.1 g/m*3 14.1 C 4.8 km/h
425 10-04-2020 11:20:00 14.6 C 9.26 g/m*3 14.6 C 3.2 km/h
Sensor: Nr:Datum:Temp:Abs-Feuchte:Windchill:Wind:
Aussen-T/F 426 10-04-2020 11:25:00 15.1 C 9.29 g/m*3 15.1 C 1.6 km/h
427 10-04-2020 11:30:00 15.4 C 9.46 g/m*3 15.4 C 1.6 km/h
428 10-04-2020 11:35:00 15.7 C 9.37 g/m*3 15.7 C 1.6 km/h
429 10-04-2020 11:40:00 16.1 C 9.6 g/m*3 16.1 C 1.6 km/h
430 10-04-2020 11:45:00 16.4 C 9.07 g/m*3 16.4 C 3.2 km/h
431 10-04-2020 11:50:00 16.8 C 9.15 g/m*3 16.8 C 0 km/h
432 10-04-2020 11:55:00 17.1 C 9.03 g/m*3 17.1 C 4.8 km/h
433 10-04-2020 12:00:00 17.4 C 8.89 g/m*3 17.4 C 6.4 km/h
434 10-04-2020 12:05:00 17.8 C 8.8 g/m*3 17.8 C 1.6 km/h
435 10-04-2020 12:10:00 18.1 C 8.65 g/m*3 18.1 C 6.4 km/h
436 10-04-2020 12:15:00 18.3 C 8.76 g/m*3 18.3 C 6.4 km/h
437 10-04-2020 12:20:00 18.6 C 8.44 g/m*3 18.6 C 8.1 km/h
438 10-04-2020 12:25:00 18.8 C 8.54 g/m*3 18.8 C 8.1 km/h
439 10-04-2020 12:30:00 19.1 C 8.36 g/m*3 19.1 C 8.1 km/h
440 10-04-2020 12:35:00 19.1 C 7.87 g/m*3 19.1 C 8.1 km/h
441 10-04-2020 12:40:00 19.2 C 7.91 g/m*3 19.2 C 6.4 km/h
442 10-04-2020 12:45:00 19.4 C 7.84 g/m*3 19.4 C 3.2 km/h
443 10-04-2020 12:50:00 19.4 C 7.67 g/m*3 19.4 C 9.7 km/h
444 10-04-2020 12:55:00 19.6 C 7.93 g/m*3 19.6 C 6.4 km/h
445 10-04-2020 13:00:00 19.8 C 8.03 g/m*3 19.8 C 12.9 km/h
446 10-04-2020 13:05:00 19.7 C 7.81 g/m*3 19.7 C 11.3 km/h
447 10-04-2020 13:10:00 19.7 C 7.98 g/m*3 19.7 C 8.1 km/h
448 10-04-2020 13:15:00 19.7 C 8.15 g/m*3 19.7 C 4.8 km/h
449 10-04-2020 13:20:00 19.8 C 7.52 g/m*3 19.8 C 11.3 km/h
450 10-04-2020 13:25:00 20 C 7.6 g/m*3 20 C 12.9 km/h
Sensor: Nr:Datum:Temp:Abs-Feuchte:Windchill:Wind:
Aussen-T/F 451 10-04-2020 13:30:00 20.1 C 7.65 g/m*3 20.1 C 8.1 km/h
452 10-04-2020 13:35:00 20.2 C 7.87 g/m*3 20.2 C 6.4 km/h
453 10-04-2020 13:40:00 20.3 C 7.74 g/m*3 20.3 C 9.7 km/h
454 10-04-2020 13:45:00 20.3 C 7.74 g/m*3 20.3 C 6.4 km/h
455 10-04-2020 13:50:00 20.3 C 7.74 g/m*3 20.3 C 8.1 km/h
456 10-04-2020 13:55:00 20.3 C 7.74 g/m*3 20.3 C 4.8 km/h
457 10-04-2020 14:00:00 20.6 C 7.87 g/m*3 20.6 C 8.1 km/h
458 10-04-2020 14:05:00 20.7 C 7.92 g/m*3 20.7 C 8.1 km/h
459 10-04-2020 14:10:00 20.8 C 7.97 g/m*3 20.8 C 6.4 km/h
460 10-04-2020 14:15:00 20.8 C 7.42 g/m*3 20.8 C 6.4 km/h
461 10-04-2020 14:20:00 20.8 C 7.79 g/m*3 20.8 C 6.4 km/h
462 10-04-2020 14:25:00 20.9 C 7.29 g/m*3 20.9 C 9.7 km/h
463 10-04-2020 14:30:00 21.1 C 7.37 g/m*3 21.1 C 3.2 km/h
464 10-04-2020 14:35:00 21.1 C 7.37 g/m*3 21.1 C 1.6 km/h
465 10-04-2020 14:40:00 21.2 C 7.78 g/m*3 21.2 C 4.8 km/h
466 10-04-2020 14:45:00 21.4 C 7.12 g/m*3 21.4 C 11.3 km/h
467 10-04-2020 14:50:00 21.6 C 7.21 g/m*3 21.6 C 11.3 km/h
468 10-04-2020 14:55:00 21.8 C 6.91 g/m*3 21.8 C 11.3 km/h
469 10-04-2020 15:00:00 21.8 C 6.72 g/m*3 21.8 C 9.7 km/h
470 10-04-2020 15:05:00 21.9 C 6.75 g/m*3 21.9 C 4.8 km/h
471 10-04-2020 15:10:00 21.9 C 6.56 g/m*3 21.9 C 3.2 km/h
472 10-04-2020 15:15:00 21.9 C 6.75 g/m*3 21.9 C 6.4 km/h
473 10-04-2020 15:20:00 21.9 C 6.56 g/m*3 21.9 C 4.8 km/h
474 10-04-2020 15:25:00 21.8 C 6.91 g/m*3 21.8 C 9.7 km/h
475 10-04-2020 15:30:00 21.8 C 6.72 g/m*3 21.8 C 4.8 km/h
Sensor: Nr:Datum:Temp:Abs-Feuchte:Windchill:Wind:
Aussen-T/F 476 10-04-2020 15:35:00 21.9 C 7.33 g/m*3 21.9 C 4.8 km/h
477 10-04-2020 15:40:00 22.1 C 7.03 g/m*3 22.1 C 6.4 km/h
478 10-04-2020 15:45:00 22.2 C 7.07 g/m*3 22.2 C 8.1 km/h
479 10-04-2020 15:50:00 22.2 C 7.46 g/m*3 22.2 C 9.7 km/h
480 10-04-2020 15:55:00 22.3 C 7.31 g/m*3 22.3 C 9.7 km/h
481 10-04-2020 16:00:00 22.3 C 7.5 g/m*3 22.3 C 4.8 km/h
482 10-04-2020 16:05:00 22.4 C 7.55 g/m*3 22.4 C 4.8 km/h
483 10-04-2020 16:10:00 22.6 C 7.63 g/m*3 22.6 C 11.3 km/h
484 10-04-2020 16:15:00 22.7 C 7.48 g/m*3 22.7 C 9.7 km/h
485 10-04-2020 16:20:00 22.7 C 7.48 g/m*3 22.7 C 6.4 km/h
486 10-04-2020 16:25:00 22.9 C 7.56 g/m*3 22.9 C 8.1 km/h
487 10-04-2020 16:30:00 23.2 C 7.48 g/m*3 23.2 C 9.7 km/h
488 10-04-2020 16:35:00 23.4 C 7.78 g/m*3 23.4 C 8.1 km/h
489 10-04-2020 16:40:00 23.6 C 7.44 g/m*3 23.6 C 11.3 km/h
490 10-04-2020 16:45:00 23.4 C 7.57 g/m*3 23.4 C 8.1 km/h
491 10-04-2020 16:50:00 23.5 C 7.4 g/m*3 23.5 C 8.1 km/h
492 10-04-2020 16:55:00 23.8 C 7.74 g/m*3 23.8 C 6.4 km/h
493 10-04-2020 17:00:00 23.9 C 7.36 g/m*3 23.9 C 12.9 km/h
494 10-04-2020 17:05:00 24.1 C 7.66 g/m*3 24.1 C 8.1 km/h
495 10-04-2020 17:10:00 24.2 C 7.48 g/m*3 24.2 C 9.7 km/h
496 10-04-2020 17:15:00 24.1 C 7.22 g/m*3 24.1 C 8.1 km/h
497 10-04-2020 17:20:00 23.8 C 7.1 g/m*3 23.8 C 11.3 km/h
498 10-04-2020 17:25:00 23.6 C 7.23 g/m*3 23.6 C 11.3 km/h
499 10-04-2020 17:30:00 23.8 C 7.53 g/m*3 23.8 C 6.4 km/h
500 10-04-2020 17:35:00 24.1 C 7.44 g/m*3 24.1 C 8.1 km/h
Sensor: Nr:Datum:Temp:Abs-Feuchte:Windchill:Wind:
Aussen-T/F 501 10-04-2020 17:40:00 24.2 C 7.7 g/m*3 24.2 C 6.4 km/h
502 10-04-2020 17:45:00 24.3 C 7.3 g/m*3 24.3 C 9.7 km/h
503 10-04-2020 17:50:00 24.1 C 7 g/m*3 24.1 C 11.3 km/h
504 10-04-2020 17:55:00 23.8 C 7.31 g/m*3 23.8 C 9.7 km/h
505 10-04-2020 18:00:00 23.5 C 6.98 g/m*3 23.5 C 12.9 km/h
506 10-04-2020 18:05:00 23.4 C 7.15 g/m*3 23.4 C 14.5 km/h
507 10-04-2020 18:10:00 23.2 C 7.28 g/m*3 23.2 C 12.9 km/h
508 10-04-2020 18:15:00 23.2 C 7.28 g/m*3 23.2 C 11.3 km/h
509 10-04-2020 18:20:00 23.2 C 7.28 g/m*3 23.2 C 11.3 km/h
510 10-04-2020 18:25:00 23.2 C 7.48 g/m*3 23.2 C 8.1 km/h
511 10-04-2020 18:30:00 23.2 C 7.48 g/m*3 23.2 C 11.3 km/h
512 10-04-2020 18:35:00 23.1 C 7.65 g/m*3 23.1 C 8.1 km/h
513 10-04-2020 18:40:00 23 C 7.81 g/m*3 23 C 8.1 km/h
514 10-04-2020 18:45:00 22.9 C 7.36 g/m*3 22.9 C 11.3 km/h
515 10-04-2020 18:50:00 22.7 C 7.27 g/m*3 22.7 C 12.9 km/h
516 10-04-2020 18:55:00 22.6 C 7.23 g/m*3 22.6 C 8.1 km/h
517 10-04-2020 19:00:00 22.4 C 7.35 g/m*3 22.4 C 9.7 km/h
518 10-04-2020 19:05:00 22.3 C 7.31 g/m*3 22.3 C 9.7 km/h
519 10-04-2020 19:10:00 22.2 C 7.26 g/m*3 22.2 C 9.7 km/h
520 10-04-2020 19:15:00 22 C 7.18 g/m*3 22 C 12.9 km/h
521 10-04-2020 19:20:00 21.7 C 7.44 g/m*3 21.7 C 11.3 km/h
522 10-04-2020 19:25:00 21.5 C 7.17 g/m*3 21.5 C 12.9 km/h
523 10-04-2020 19:30:00 21.3 C 7.08 g/m*3 21.3 C 9.7 km/h
524 10-04-2020 19:35:00 21.2 C 7.23 g/m*3 21.2 C 11.3 km/h
525 10-04-2020 19:40:00 21 C 7.14 g/m*3 21 C 9.7 km/h
Sensor: Nr:Datum:Temp:Abs-Feuchte:Windchill:Wind:
Aussen-T/F 526 10-04-2020 19:45:00 20.8 C 7.06 g/m*3 20.8 C 11.3 km/h
527 10-04-2020 19:50:00 20.7 C 7.2 g/m*3 20.7 C 11.3 km/h
528 10-04-2020 19:55:00 20.5 C 7.3 g/m*3 20.5 C 9.7 km/h
529 10-04-2020 20:00:00 20.3 C 7.21 g/m*3 20.3 C 4.8 km/h
530 10-04-2020 20:05:00 20 C 7.6 g/m*3 20 C 1.6 km/h
531 10-04-2020 20:10:00 19.6 C 7.77 g/m*3 19.6 C 4.8 km/h
532 10-04-2020 20:15:00 19.1 C 7.7 g/m*3 19.1 C 1.6 km/h
533 10-04-2020 20:20:00 18.4 C 7.86 g/m*3 18.4 C 0 km/h
534 10-04-2020 20:25:00 17.8 C 7.74 g/m*3 17.8 C 3.2 km/h
535 10-04-2020 20:30:00 17.2 C 7.76 g/m*3 17.2 C 3.2 km/h
536 10-04-2020 20:35:00 16.7 C 7.82 g/m*3 16.7 C 0 km/h
537 10-04-2020 20:40:00 16.3 C 7.63 g/m*3 16.3 C 1.6 km/h
538 10-04-2020 20:45:00 16 C 7.77 g/m*3 16 C 0 km/h
539 10-04-2020 20:50:00 15.6 C 7.58 g/m*3 15.6 C 3.2 km/h
540 10-04-2020 20:55:00 15.4 C 7.62 g/m*3 15.4 C 4.8 km/h
541 10-04-2020 21:00:00 15.3 C 7.57 g/m*3 15.3 C 3.2 km/h
542 10-04-2020 21:05:00 15.2 C 7.66 g/m*3 15.2 C 4.8 km/h
543 10-04-2020 21:10:00 15 C 7.57 g/m*3 15 C 0 km/h
544 10-04-2020 21:15:00 14.8 C 7.6 g/m*3 14.8 C 1.6 km/h
545 10-04-2020 21:20:00 14.6 C 7.63 g/m*3 14.6 C 4.8 km/h
546 10-04-2020 21:25:00 14.4 C 7.54 g/m*3 14.4 C 1.6 km/h
547 10-04-2020 21:30:00 14.3 C 7.49 g/m*3 14.3 C 3.2 km/h
548 10-04-2020 21:35:00 14.2 C 7.33 g/m*3 14.2 C 3.2 km/h
549 10-04-2020 21:40:00 14.2 C 7.45 g/m*3 14.2 C 3.2 km/h
550 10-04-2020 21:45:00 14.2 C 7.57 g/m*3 14.2 C 1.6 km/h
Sensor: Nr:Datum:Temp:Abs-Feuchte:Windchill:Wind:
Aussen-T/F 551 10-04-2020 21:50:00 14.1 C 7.52 g/m*3 14.1 C 1.6 km/h
552 10-04-2020 21:55:00 14 C 7.48 g/m*3 14 C 3.2 km/h
553 10-04-2020 22:00:00 13.9 C 7.67 g/m*3 13.9 C 1.6 km/h
554 10-04-2020 22:05:00 13.9 C 7.67 g/m*3 13.9 C 3.2 km/h
555 10-04-2020 22:10:00 13.9 C 7.55 g/m*3 13.9 C 1.6 km/h
556 10-04-2020 22:15:00 14 C 7.72 g/m*3 14 C 3.2 km/h
557 10-04-2020 22:20:00 14.1 C 7.77 g/m*3 14.1 C 3.2 km/h
558 10-04-2020 22:25:00 14.2 C 7.94 g/m*3 14.2 C 1.6 km/h
559 10-04-2020 22:30:00 14.2 C 7.69 g/m*3 14.2 C 3.2 km/h
560 10-04-2020 22:35:00 14.2 C 7.82 g/m*3 14.2 C 0 km/h
561 10-04-2020 22:40:00 14.2 C 7.82 g/m*3 14.2 C 0 km/h
562 10-04-2020 22:45:00 14.1 C 7.77 g/m*3 14.1 C 0 km/h
563 10-04-2020 22:50:00 14 C 7.6 g/m*3 14 C 3.2 km/h
564 10-04-2020 22:55:00 13.9 C 7.55 g/m*3 13.9 C 3.2 km/h
565 10-04-2020 23:00:00 13.7 C 7.46 g/m*3 13.7 C 1.6 km/h
566 10-04-2020 23:05:00 13.6 C 7.41 g/m*3 13.6 C 4.8 km/h
567 10-04-2020 23:10:00 13.4 C 7.44 g/m*3 13.4 C 3.2 km/h
568 10-04-2020 23:15:00 13.2 C 7.46 g/m*3 13.2 C 0 km/h
569 10-04-2020 23:20:00 13 C 7.37 g/m*3 13 C 0 km/h
570 10-04-2020 23:25:00 12.8 C 7.28 g/m*3 12.8 C 3.2 km/h
571 10-04-2020 23:30:00 12.7 C 7.35 g/m*3 12.7 C 3.2 km/h
572 10-04-2020 23:35:00 12.6 C 7.41 g/m*3 12.6 C 3.2 km/h
573 10-04-2020 23:40:00 12.4 C 7.43 g/m*3 12.4 C 3.2 km/h
574 10-04-2020 23:45:00 12.3 C 7.38 g/m*3 12.3 C 4.8 km/h
575 10-04-2020 23:50:00 12.1 C 7.4 g/m*3 12.1 C 1.6 km/h
Sensor: Nr:Datum:Temp:Abs-Feuchte:Windchill:Wind:
Aussen-T/F 576 10-04-2020 23:55:00 11.9 C 7.31 g/m*3 11.9 C 3.2 km/h
577 11-04-2020 00:00:00 11.8 C 7.37 g/m*3 11.8 C 3.2 km/h
578 11-04-2020 00:05:00 11.7 C 7.32 g/m*3 11.7 C 4.8 km/h
579 11-04-2020 00:10:00 11.5 C 7.33 g/m*3 11.5 C 3.2 km/h
580 11-04-2020 00:15:00 11.4 C 7.29 g/m*3 11.4 C 0 km/h
581 11-04-2020 00:20:00 11.3 C 7.24 g/m*3 11.3 C 4.8 km/h
582 11-04-2020 00:25:00 11.2 C 7.3 g/m*3 11.2 C 4.8 km/h
583 11-04-2020 00:30:00 11.1 C 7.25 g/m*3 11.1 C 1.6 km/h
584 11-04-2020 00:35:00 11 C 7.21 g/m*3 11 C 1.6 km/h
585 11-04-2020 00:40:00 10.8 C 7.22 g/m*3 10.8 C 3.2 km/h
586 11-04-2020 00:45:00 10.8 C 7.12 g/m*3 10.8 C 0 km/h
587 11-04-2020 00:50:00 10.7 C 7.17 g/m*3 10.7 C 0 km/h
588 11-04-2020 00:55:00 10.7 C 7.07 g/m*3 10.7 C 1.6 km/h
589 11-04-2020 01:00:00 10.6 C 7.03 g/m*3 10.6 C 0 km/h
590 11-04-2020 01:05:00 10.5 C 6.98 g/m*3 10.5 C 0 km/h
591 11-04-2020 01:10:00 10.4 C 6.94 g/m*3 10.4 C 0 km/h
592 11-04-2020 01:15:00 10.3 C 6.99 g/m*3 10.3 C 0 km/h
593 11-04-2020 01:20:00 10.2 C 6.95 g/m*3 10.2 C 0 km/h
594 11-04-2020 01:25:00 10 C 6.86 g/m*3 10 C 0 km/h
595 11-04-2020 01:30:00 9.9 C 6.91 g/m*3 9.9 C 0 km/h
596 11-04-2020 01:35:00 9.8 C 6.87 g/m*3 9.8 C 0 km/h
597 11-04-2020 01:40:00 9.7 C 6.73 g/m*3 9.7 C 1.6 km/h
598 11-04-2020 01:45:00 9.6 C 6.69 g/m*3 9.6 C 0 km/h
599 11-04-2020 01:50:00 9.6 C 6.78 g/m*3 9.6 C 0 km/h
600 11-04-2020 01:55:00 9.4 C 6.69 g/m*3 9.4 C 0 km/h
Sensor: Nr:Datum:Temp:Abs-Feuchte:Windchill:Wind:
Aussen-T/F 601 11-04-2020 02:00:00 9.3 C 6.65 g/m*3 9.3 C 0 km/h
602 11-04-2020 02:05:00 9.2 C 6.61 g/m*3 9.2 C 1.6 km/h
603 11-04-2020 02:10:00 9.1 C 6.57 g/m*3 9.1 C 1.6 km/h
604 11-04-2020 02:15:00 9.1 C 6.65 g/m*3 9.1 C 3.2 km/h
605 11-04-2020 02:20:00 9 C 6.52 g/m*3 9 C 4.8 km/h
606 11-04-2020 02:25:00 8.9 C 6.48 g/m*3 8.9 C 1.6 km/h
607 11-04-2020 02:30:00 8.9 C 6.48 g/m*3 8.9 C 4.8 km/h
608 11-04-2020 02:35:00 8.9 C 6.48 g/m*3 8.9 C 3.2 km/h
609 11-04-2020 02:40:00 8.9 C 6.48 g/m*3 8.9 C 0 km/h
610 11-04-2020 02:45:00 8.9 C 6.48 g/m*3 8.9 C 0 km/h
611 11-04-2020 02:50:00 8.8 C 6.44 g/m*3 8.8 C 0 km/h
612 11-04-2020 02:55:00 8.7 C 6.4 g/m*3 8.7 C 0 km/h
613 11-04-2020 03:00:00 8.7 C 6.4 g/m*3 8.7 C 4.8 km/h
614 11-04-2020 03:05:00 8.6 C 6.27 g/m*3 8.6 C 3.2 km/h
615 11-04-2020 03:10:00 8.6 C 6.27 g/m*3 8.6 C 4.8 km/h
616 11-04-2020 03:15:00 8.6 C 6.1 g/m*3 8.6 C 4.8 km/h
617 11-04-2020 03:20:00 8.6 C 6.02 g/m*3 8.6 C 4.8 km/h
618 11-04-2020 03:25:00 8.6 C 6.02 g/m*3 8.6 C 4.8 km/h
619 11-04-2020 03:30:00 8.6 C 6.02 g/m*3 8.6 C 3.2 km/h
620 11-04-2020 03:35:00 8.5 C 5.98 g/m*3 8.5 C 3.2 km/h
621 11-04-2020 03:40:00 8.4 C 6.11 g/m*3 8.4 C 1.6 km/h
622 11-04-2020 03:45:00 8.3 C 5.98 g/m*3 8.3 C 3.2 km/h
623 11-04-2020 03:50:00 8.3 C 5.98 g/m*3 8.3 C 3.2 km/h
624 11-04-2020 03:55:00 8.2 C 5.86 g/m*3 8.2 C 4.8 km/h
625 11-04-2020 04:00:00 8.2 C 5.95 g/m*3 8.2 C 1.6 km/h
Sensor: Nr:Datum:Temp:Abs-Feuchte:Windchill:Wind:
Aussen-T/F 626 11-04-2020 04:05:00 8.1 C 5.91 g/m*3 8.1 C 3.2 km/h
627 11-04-2020 04:10:00 8.1 C 5.91 g/m*3 8.1 C 3.2 km/h
628 11-04-2020 04:15:00 8 C 5.79 g/m*3 8 C 4.8 km/h
629 11-04-2020 04:20:00 7.9 C 5.67 g/m*3 7.9 C 4.8 km/h
630 11-04-2020 04:25:00 7.9 C 5.75 g/m*3 7.9 C 4.8 km/h
631 11-04-2020 04:30:00 7.8 C 5.63 g/m*3 7.8 C 4.8 km/h
632 11-04-2020 04:35:00 7.8 C 5.71 g/m*3 7.8 C 4.8 km/h
633 11-04-2020 04:40:00 7.7 C 5.68 g/m*3 7.7 C 4.8 km/h
634 11-04-2020 04:45:00 7.7 C 5.68 g/m*3 7.7 C 4.8 km/h
635 11-04-2020 04:50:00 7.6 C 5.56 g/m*3 7.6 C 4.8 km/h
636 11-04-2020 04:55:00 7.6 C 5.48 g/m*3 7.6 C 4.8 km/h
637 11-04-2020 05:00:00 7.5 C 5.44 g/m*3 7.5 C 4.8 km/h
638 11-04-2020 05:05:00 7.5 C 5.52 g/m*3 7.5 C 4.8 km/h
639 11-04-2020 05:10:00 7.4 C 5.49 g/m*3 7.4 C 3.2 km/h
640 11-04-2020 05:15:00 7.3 C 5.37 g/m*3 7.3 C 4.8 km/h
641 11-04-2020 05:20:00 7.3 C 5.53 g/m*3 7.3 C 3.2 km/h
642 11-04-2020 05:25:00 7.2 C 5.42 g/m*3 7.2 C 3.2 km/h
643 11-04-2020 05:30:00 7.1 C 5.46 g/m*3 7.1 C 3.2 km/h
644 11-04-2020 05:35:00 6.9 C 5.39 g/m*3 6.9 C 3.2 km/h
645 11-04-2020 05:40:00 6.8 C 5.51 g/m*3 6.8 C 0 km/h
646 11-04-2020 05:45:00 6.7 C 5.55 g/m*3 6.7 C 0 km/h
647 11-04-2020 05:50:00 6.6 C 5.44 g/m*3 6.6 C 0 km/h
648 11-04-2020 05:55:00 6.5 C 5.47 g/m*3 6.5 C 0 km/h
649 11-04-2020 06:00:00 6.4 C 5.44 g/m*3 6.4 C 0 km/h
650 11-04-2020 06:05:00 6.3 C 5.48 g/m*3 6.3 C 0 km/h
Sensor: Nr:Datum:Temp:Abs-Feuchte:Windchill:Wind:
Aussen-T/F 651 11-04-2020 06:10:00 6.2 C 5.52 g/m*3 6.2 C 0 km/h
652 11-04-2020 06:15:00 6 C 5.52 g/m*3 6 C 0 km/h
653 11-04-2020 06:20:00 5.8 C 5.44 g/m*3 5.8 C 0 km/h
654 11-04-2020 06:25:00 5.7 C 5.41 g/m*3 5.7 C 0 km/h
655 11-04-2020 06:30:00 5.7 C 5.41 g/m*3 5.7 C 0 km/h
656 11-04-2020 06:35:00 5.7 C 5.41 g/m*3 5.7 C 0 km/h
657 11-04-2020 06:40:00 5.6 C 5.37 g/m*3 5.6 C 0 km/h
658 11-04-2020 06:45:00 5.5 C 5.41 g/m*3 5.5 C 0 km/h
659 11-04-2020 06:50:00 5.4 C 5.37 g/m*3 5.4 C 0 km/h
660 11-04-2020 06:55:00 5.4 C 5.37 g/m*3 5.4 C 0 km/h
661 11-04-2020 07:00:00 5.3 C 5.34 g/m*3 5.3 C 0 km/h
662 11-04-2020 07:05:00 5.2 C 5.37 g/m*3 5.2 C 0 km/h
663 11-04-2020 07:10:00 5.2 C 5.37 g/m*3 5.2 C 0 km/h
664 11-04-2020 07:15:00 5.2 C 5.37 g/m*3 5.2 C 0 km/h
665 11-04-2020 07:20:00 5.2 C 5.44 g/m*3 5.2 C 0 km/h
666 11-04-2020 07:25:00 5.2 C 5.44 g/m*3 5.2 C 0 km/h
667 11-04-2020 07:30:00 5.1 C 5.4 g/m*3 5.1 C 0 km/h
668 11-04-2020 07:35:00 5.2 C 5.44 g/m*3 5.2 C 0 km/h
669 11-04-2020 07:40:00 5.2 C 5.44 g/m*3 5.2 C 0 km/h
670 11-04-2020 07:45:00 5.2 C 5.37 g/m*3 5.2 C 0 km/h
671 11-04-2020 07:50:00 5.3 C 5.41 g/m*3 5.3 C 0 km/h
672 11-04-2020 07:55:00 5.4 C 5.44 g/m*3 5.4 C 0 km/h
673 11-04-2020 08:00:00 5.4 C 5.44 g/m*3 5.4 C 0 km/h
674 11-04-2020 08:05:00 5.5 C 5.48 g/m*3 5.5 C 0 km/h
675 11-04-2020 08:10:00 5.6 C 5.51 g/m*3 5.6 C 0 km/h
Sensor: Nr:Datum:Temp:Abs-Feuchte:Windchill:Wind:
Aussen-T/F 676 11-04-2020 08:15:00 5.6 C 5.51 g/m*3 5.6 C 0 km/h
677 11-04-2020 08:20:00 5.7 C 5.55 g/m*3 5.7 C 0 km/h
678 11-04-2020 08:25:00 5.7 C 5.55 g/m*3 5.7 C 0 km/h
679 11-04-2020 08:30:00 5.8 C 5.59 g/m*3 5.8 C 1.6 km/h
680 11-04-2020 08:35:00 5.8 C 5.44 g/m*3 5.8 C 3.2 km/h
681 11-04-2020 08:40:00 5.9 C 5.48 g/m*3 5.9 C 1.6 km/h
682 11-04-2020 08:45:00 6.1 C 5.63 g/m*3 6.1 C 0 km/h
683 11-04-2020 08:50:00 6.2 C 5.59 g/m*3 6.2 C 0 km/h
684 11-04-2020 08:55:00 6.3 C 5.7 g/m*3 6.3 C 3.2 km/h
685 11-04-2020 09:00:00 6.4 C 5.59 g/m*3 6.4 C 3.2 km/h
686 11-04-2020 09:05:00 6.6 C 5.59 g/m*3 6.6 C 1.6 km/h
687 11-04-2020 09:10:00 6.7 C 5.62 g/m*3 6.7 C 0 km/h
688 11-04-2020 09:15:00 6.9 C 5.7 g/m*3 6.9 C 0 km/h
689 11-04-2020 09:20:00 7 C 5.73 g/m*3 7 C 0 km/h
690 11-04-2020 09:25:00 7.2 C 5.81 g/m*3 7.2 C 0 km/h
691 11-04-2020 09:30:00 7.3 C 5.85 g/m*3 7.3 C 0 km/h
692 11-04-2020 09:35:00 7.5 C 5.92 g/m*3 7.5 C 0 km/h
693 11-04-2020 09:40:00 7.7 C 6 g/m*3 7.7 C 0 km/h
694 11-04-2020 09:45:00 7.9 C 6 g/m*3 7.9 C 0 km/h
695 11-04-2020 09:50:00 8.2 C 6.03 g/m*3 8.2 C 0 km/h
696 11-04-2020 09:55:00 8.4 C 6.02 g/m*3 8.4 C 3.2 km/h
697 11-04-2020 10:00:00 8.6 C 6.1 g/m*3 8.6 C 1.6 km/h
698 11-04-2020 10:05:00 8.8 C 6.01 g/m*3 8.8 C 1.6 km/h
699 11-04-2020 10:10:00 9.1 C 6.12 g/m*3 9.1 C 1.6 km/h
700 11-04-2020 10:15:00 9.3 C 6.29 g/m*3 9.3 C 1.6 km/h
Sensor: Nr:Datum:Temp:Abs-Feuchte:Windchill:Wind:
Aussen-T/F 701 11-04-2020 10:20:00 9.5 C 6.19 g/m*3 9.5 C 4.8 km/h
702 11-04-2020 10:25:00 9.8 C 6.22 g/m*3 9.8 C 1.6 km/h
703 11-04-2020 10:30:00 10.1 C 6.24 g/m*3 10.1 C 1.6 km/h
704 11-04-2020 10:35:00 10.4 C 5.98 g/m*3 10.4 C 0 km/h
705 11-04-2020 10:40:00 10.7 C 6.09 g/m*3 10.7 C 3.2 km/h
706 11-04-2020 10:45:00 11.2 C 5.57 g/m*3 11.2 C 1.6 km/h
707 11-04-2020 10:50:00 11.6 C 6.13 g/m*3 11.6 C 0 km/h
708 11-04-2020 10:55:00 11.9 C 6.25 g/m*3 11.9 C 0 km/h
709 11-04-2020 11:00:00 12.2 C 6.04 g/m*3 12.2 C 1.6 km/h
710 11-04-2020 11:05:00 12.4 C 6.34 g/m*3 12.4 C 0 km/h
711 11-04-2020 11:10:00 12.7 C 6.12 g/m*3 12.7 C 0 km/h
712 11-04-2020 11:15:00 13.1 C 5.93 g/m*3 13.1 C 0 km/h
713 11-04-2020 11:20:00 13.5 C 5.97 g/m*3 13.5 C 1.6 km/h
714 11-04-2020 11:25:00 14 C 6.15 g/m*3 14 C 1.6 km/h
715 11-04-2020 11:30:00 14.4 C 6.06 g/m*3 14.4 C 0 km/h
716 11-04-2020 11:35:00 14.8 C 5.95 g/m*3 14.8 C 1.6 km/h
717 11-04-2020 11:40:00 15.2 C 5.97 g/m*3 15.2 C 0 km/h
718 11-04-2020 11:45:00 15.6 C 6.38 g/m*3 15.6 C 0 km/h
719 11-04-2020 11:50:00 15.8 C 6.06 g/m*3 15.8 C 0 km/h
720 11-04-2020 11:55:00 16.2 C 6.07 g/m*3 16.2 C 4.8 km/h
721 11-04-2020 12:00:00 16.6 C 6.07 g/m*3 16.6 C 3.2 km/h
722 11-04-2020 12:05:00 16.9 C 6.18 g/m*3 16.9 C 4.8 km/h
723 11-04-2020 12:10:00 17.2 C 6.15 g/m*3 17.2 C 1.6 km/h
724 11-04-2020 12:15:00 17.5 C 6.11 g/m*3 17.5 C 1.6 km/h
725 11-04-2020 12:20:00 17.8 C 6.07 g/m*3 17.8 C 3.2 km/h
Sensor: Nr:Datum:Temp:Abs-Feuchte:Windchill:Wind:
Aussen-T/F 726 11-04-2020 12:25:00 18.1 C 5.87 g/m*3 18.1 C 8.1 km/h
727 11-04-2020 12:30:00 18.3 C 5.94 g/m*3 18.3 C 9.7 km/h
728 11-04-2020 12:35:00 18.6 C 6.37 g/m*3 18.6 C 9.7 km/h
729 11-04-2020 12:40:00 18.7 C 6.24 g/m*3 18.7 C 8.1 km/h
730 11-04-2020 12:45:00 18.8 C 5.96 g/m*3 18.8 C 8.1 km/h
731 11-04-2020 12:50:00 18.8 C 5.96 g/m*3 18.8 C 9.7 km/h
732 11-04-2020 12:55:00 18.9 C 5.99 g/m*3 18.9 C 12.9 km/h
733 11-04-2020 13:00:00 19.1 C 5.9 g/m*3 19.1 C 14.5 km/h
734 11-04-2020 13:05:00 19.2 C 5.94 g/m*3 19.2 C 9.7 km/h
735 11-04-2020 13:10:00 19.4 C 6.01 g/m*3 19.4 C 9.7 km/h
736 11-04-2020 13:15:00 19.5 C 6.04 g/m*3 19.5 C 8.1 km/h
737 11-04-2020 13:20:00 19.6 C 5.91 g/m*3 19.6 C 8.1 km/h
738 11-04-2020 13:25:00 19.6 C 6.08 g/m*3 19.6 C 12.9 km/h
739 11-04-2020 13:30:00 19.8 C 6.32 g/m*3 19.8 C 9.7 km/h
740 11-04-2020 13:35:00 19.9 C 6.19 g/m*3 19.9 C 6.4 km/h
741 11-04-2020 13:40:00 20.1 C 6.26 g/m*3 20.1 C 14.5 km/h
742 11-04-2020 13:45:00 20.2 C 6.29 g/m*3 20.2 C 12.9 km/h
743 11-04-2020 13:50:00 20.3 C 6.33 g/m*3 20.3 C 11.3 km/h
744 11-04-2020 13:55:00 20.4 C 6.37 g/m*3 20.4 C 12.9 km/h
745 11-04-2020 14:00:00 20.6 C 6.62 g/m*3 20.6 C 9.7 km/h
746 11-04-2020 14:05:00 20.6 C 6.62 g/m*3 20.6 C 8.1 km/h
747 11-04-2020 14:10:00 20.7 C 6.48 g/m*3 20.7 C 11.3 km/h
748 11-04-2020 14:15:00 20.9 C 6.56 g/m*3 20.9 C 11.3 km/h
749 11-04-2020 14:20:00 20.9 C 6.74 g/m*3 20.9 C 6.4 km/h
750 11-04-2020 14:25:00 21.2 C 6.86 g/m*3 21.2 C 8.1 km/h
Sensor: Nr:Datum:Temp:Abs-Feuchte:Windchill:Wind:
Aussen-T/F 751 11-04-2020 14:30:00 21.4 C 6.75 g/m*3 21.4 C 9.7 km/h
752 11-04-2020 14:35:00 21.4 C 6.56 g/m*3 21.4 C 8.1 km/h
753 11-04-2020 14:40:00 21.5 C 6.6 g/m*3 21.5 C 9.7 km/h
754 11-04-2020 14:45:00 21.7 C 6.49 g/m*3 21.7 C 9.7 km/h
755 11-04-2020 14:50:00 21.8 C 6.91 g/m*3 21.8 C 9.7 km/h
756 11-04-2020 14:55:00 22.1 C 6.83 g/m*3 22.1 C 8.1 km/h
757 11-04-2020 15:00:00 22.1 C 6.64 g/m*3 22.1 C 8.1 km/h
758 11-04-2020 15:05:00 22.1 C 7.03 g/m*3 22.1 C 11.3 km/h
759 11-04-2020 15:10:00 22.1 C 6.83 g/m*3 22.1 C 6.4 km/h
760 11-04-2020 15:15:00 22.2 C 6.68 g/m*3 22.2 C 11.3 km/h
761 11-04-2020 15:20:00 22.2 C 6.87 g/m*3 22.2 C 11.3 km/h
762 11-04-2020 15:25:00 22.1 C 6.83 g/m*3 22.1 C 12.9 km/h
763 11-04-2020 15:30:00 22.1 C 6.83 g/m*3 22.1 C 6.4 km/h
764 11-04-2020 15:35:00 22.1 C 6.83 g/m*3 22.1 C 9.7 km/h
765 11-04-2020 15:40:00 22.1 C 6.83 g/m*3 22.1 C 9.7 km/h
766 11-04-2020 15:45:00 22.2 C 7.07 g/m*3 22.2 C 3.2 km/h
767 11-04-2020 15:50:00 22.2 C 6.87 g/m*3 22.2 C 4.8 km/h
768 11-04-2020 15:55:00 22.2 C 6.87 g/m*3 22.2 C 4.8 km/h
769 11-04-2020 16:00:00 22.2 C 7.07 g/m*3 22.2 C 4.8 km/h
770 11-04-2020 16:05:00 22.2 C 7.26 g/m*3 22.2 C 4.8 km/h
771 11-04-2020 16:10:00 22.4 C 7.15 g/m*3 22.4 C 6.4 km/h
772 11-04-2020 16:15:00 22.7 C 7.07 g/m*3 22.7 C 6.4 km/h
773 11-04-2020 16:20:00 22.8 C 7.11 g/m*3 22.8 C 3.2 km/h
774 11-04-2020 16:25:00 23 C 6.99 g/m*3 23 C 1.6 km/h
775 11-04-2020 16:30:00 23.3 C 7.53 g/m*3 23.3 C 3.2 km/h
Sensor: Nr:Datum:Temp:Abs-Feuchte:Windchill:Wind:
Aussen-T/F 776 11-04-2020 16:35:00 23.7 C 7.06 g/m*3 23.7 C 6.4 km/h
777 11-04-2020 16:40:00 24.1 C 7.44 g/m*3 24.1 C 3.2 km/h
778 11-04-2020 16:45:00 24.4 C 7.79 g/m*3 24.4 C 3.2 km/h
779 11-04-2020 16:50:00 24.8 C 7.28 g/m*3 24.8 C 8.1 km/h
780 11-04-2020 16:55:00 24.9 C 7.55 g/m*3 24.9 C 4.8 km/h
781 11-04-2020 17:00:00 24.8 C 7.06 g/m*3 24.8 C 6.4 km/h
782 11-04-2020 17:05:00 24.7 C 7.24 g/m*3 24.7 C 8.1 km/h
783 11-04-2020 17:10:00 24.6 C 7.2 g/m*3 24.6 C 6.4 km/h
784 11-04-2020 17:15:00 24.6 C 7.2 g/m*3 24.6 C 8.1 km/h
785 11-04-2020 17:20:00 24.4 C 7.34 g/m*3 24.4 C 8.1 km/h
786 11-04-2020 17:25:00 24.6 C 7.43 g/m*3 24.6 C 4.8 km/h
787 11-04-2020 17:30:00 24.6 C 7.2 g/m*3 24.6 C 11.3 km/h
788 11-04-2020 17:35:00 24.2 C 7.26 g/m*3 24.2 C 9.7 km/h
789 11-04-2020 17:40:00 24.1 C 7.22 g/m*3 24.1 C 16.1 km/h
790 11-04-2020 17:45:00 23.9 C 7.36 g/m*3 23.9 C 9.7 km/h
791 11-04-2020 17:50:00 24.1 C 7.22 g/m*3 24.1 C 8.1 km/h
792 11-04-2020 17:55:00 24.1 C 7 g/m*3 24.1 C 6.4 km/h
793 11-04-2020 18:00:00 24.2 C 7.26 g/m*3 24.2 C 8.1 km/h
794 11-04-2020 18:05:00 24.1 C 7.22 g/m*3 24.1 C 8.1 km/h
795 11-04-2020 18:10:00 23.9 C 7.14 g/m*3 23.9 C 8.1 km/h
796 11-04-2020 18:15:00 23.8 C 7.1 g/m*3 23.8 C 9.7 km/h
797 11-04-2020 18:20:00 23.8 C 7.1 g/m*3 23.8 C 8.1 km/h
798 11-04-2020 18:25:00 23.9 C 7.14 g/m*3 23.9 C 9.7 km/h
799 11-04-2020 18:30:00 24 C 7.18 g/m*3 24 C 3.2 km/h
800 11-04-2020 18:35:00 24.3 C 7.3 g/m*3 24.3 C 4.8 km/h
Sensor: Nr:Datum:Temp:Abs-Feuchte:Windchill:Wind:
Aussen-T/F 801 11-04-2020 18:40:00 24.2 C 7.48 g/m*3 24.2 C 6.4 km/h
802 11-04-2020 18:45:00 24.2 C 7.04 g/m*3 24.2 C 4.8 km/h
803 11-04-2020 18:50:00 24.1 C 7 g/m*3 24.1 C 8.1 km/h
804 11-04-2020 18:55:00 23.8 C 7.1 g/m*3 23.8 C 8.1 km/h
805 11-04-2020 19:00:00 23.8 C 7.1 g/m*3 23.8 C 4.8 km/h
806 11-04-2020 19:05:00 23.9 C 7.14 g/m*3 23.9 C 4.8 km/h
807 11-04-2020 19:10:00 23.8 C 7.31 g/m*3 23.8 C 4.8 km/h
808 11-04-2020 19:15:00 23.6 C 7.66 g/m*3 23.6 C 6.4 km/h
809 11-04-2020 19:20:00 23.4 C 7.78 g/m*3 23.4 C 1.6 km/h
810 11-04-2020 19:25:00 23.2 C 6.86 g/m*3 23.2 C 4.8 km/h
811 11-04-2020 19:30:00 22.9 C 7.15 g/m*3 22.9 C 4.8 km/h
812 11-04-2020 19:35:00 22.7 C 7.07 g/m*3 22.7 C 4.8 km/h
813 11-04-2020 19:40:00 22.4 C 7.55 g/m*3 22.4 C 1.6 km/h
814 11-04-2020 19:45:00 22.1 C 8 g/m*3 22.1 C 1.6 km/h
815 11-04-2020 19:50:00 21.5 C 7.92 g/m*3 21.5 C 3.2 km/h
816 11-04-2020 19:55:00 20.7 C 8.1 g/m*3 20.7 C 3.2 km/h
817 11-04-2020 20:00:00 19.9 C 7.9 g/m*3 19.9 C 3.2 km/h
818 11-04-2020 20:05:00 19.2 C 7.75 g/m*3 19.2 C 4.8 km/h
819 11-04-2020 20:10:00 18.6 C 7.8 g/m*3 18.6 C 6.4 km/h
820 11-04-2020 20:15:00 18 C 7.68 g/m*3 18 C 3.2 km/h
821 11-04-2020 20:20:00 17.6 C 7.65 g/m*3 17.6 C 4.8 km/h
822 11-04-2020 20:25:00 17.1 C 7.71 g/m*3 17.1 C 4.8 km/h
823 11-04-2020 20:30:00 16.8 C 7.58 g/m*3 16.8 C 4.8 km/h
824 11-04-2020 20:35:00 16.5 C 7.44 g/m*3 16.5 C 4.8 km/h
825 11-04-2020 20:40:00 16.3 C 7.49 g/m*3 16.3 C 6.4 km/h
Sensor: Nr:Datum:Temp:Abs-Feuchte:Windchill:Wind:
Aussen-T/F 826 11-04-2020 20:45:00 16.1 C 7.4 g/m*3 16.1 C 6.4 km/h
827 11-04-2020 20:50:00 15.9 C 7.45 g/m*3 15.9 C 4.8 km/h
828 11-04-2020 20:55:00 15.8 C 7.4 g/m*3 15.8 C 6.4 km/h
829 11-04-2020 21:00:00 15.7 C 7.09 g/m*3 15.7 C 4.8 km/h
830 11-04-2020 21:05:00 15.6 C 7.45 g/m*3 15.6 C 6.4 km/h
831 11-04-2020 21:10:00 15.5 C 7.4 g/m*3 15.5 C 6.4 km/h
832 11-04-2020 21:15:00 15.4 C 7.36 g/m*3 15.4 C 4.8 km/h
833 11-04-2020 21:20:00 15.3 C 7.31 g/m*3 15.3 C 6.4 km/h
834 11-04-2020 21:25:00 15.3 C 7.31 g/m*3 15.3 C 6.4 km/h
835 11-04-2020 21:30:00 15.2 C 7.4 g/m*3 15.2 C 6.4 km/h
836 11-04-2020 21:35:00 15.1 C 7.48 g/m*3 15.1 C 6.4 km/h
837 11-04-2020 21:40:00 14.9 C 7.26 g/m*3 14.9 C 4.8 km/h
838 11-04-2020 21:45:00 14.8 C 7.22 g/m*3 14.8 C 4.8 km/h
839 11-04-2020 21:50:00 14.8 C 7.35 g/m*3 14.8 C 4.8 km/h
840 11-04-2020 21:55:00 14.6 C 7.51 g/m*3 14.6 C 4.8 km/h
841 11-04-2020 22:00:00 14.4 C 7.29 g/m*3 14.4 C 4.8 km/h
842 11-04-2020 22:05:00 14.3 C 7.37 g/m*3 14.3 C 4.8 km/h
843 11-04-2020 22:10:00 14.2 C 7.33 g/m*3 14.2 C 4.8 km/h
844 11-04-2020 22:15:00 14.1 C 7.28 g/m*3 14.1 C 4.8 km/h
845 11-04-2020 22:20:00 14.1 C 7.28 g/m*3 14.1 C 4.8 km/h
846 11-04-2020 22:25:00 14.1 C 7.4 g/m*3 14.1 C 4.8 km/h
847 11-04-2020 22:30:00 14.1 C 7.52 g/m*3 14.1 C 3.2 km/h
848 11-04-2020 22:35:00 14.1 C 7.65 g/m*3 14.1 C 1.6 km/h
849 11-04-2020 22:40:00 14.1 C 7.65 g/m*3 14.1 C 3.2 km/h
850 11-04-2020 22:45:00 14.2 C 7.69 g/m*3 14.2 C 1.6 km/h
Sensor: Nr:Datum:Temp:Abs-Feuchte:Windchill:Wind:
Aussen-T/F 851 11-04-2020 22:50:00 14.2 C 7.82 g/m*3 14.2 C 0 km/h
852 11-04-2020 22:55:00 14.2 C 7.94 g/m*3 14.2 C 0 km/h
853 11-04-2020 23:00:00 14.2 C 7.82 g/m*3 14.2 C 0 km/h
854 11-04-2020 23:05:00 14 C 7.72 g/m*3 14 C 0 km/h
855 11-04-2020 23:10:00 13.8 C 7.51 g/m*3 13.8 C 0 km/h
856 11-04-2020 23:15:00 13.6 C 7.53 g/m*3 13.6 C 0 km/h
857 11-04-2020 23:20:00 13.4 C 7.44 g/m*3 13.4 C 1.6 km/h
858 11-04-2020 23:25:00 13.3 C 7.51 g/m*3 13.3 C 3.2 km/h
859 11-04-2020 23:30:00 13.1 C 7.42 g/m*3 13.1 C 0 km/h
860 11-04-2020 23:35:00 12.8 C 7.39 g/m*3 12.8 C 0 km/h
861 11-04-2020 23:40:00 12.7 C 7.46 g/m*3 12.7 C 0 km/h
862 11-04-2020 23:45:00 12.5 C 7.37 g/m*3 12.5 C 0 km/h
863 11-04-2020 23:50:00 12.3 C 7.49 g/m*3 12.3 C 0 km/h
864 11-04-2020 23:55:00 12.2 C 7.45 g/m*3 12.2 C 0 km/h

Legende:
   Min
   Max


Maximal/Minimal-Werte vom 09.04.2020 - 11.04.2020

Sensor Min Max Avg
Temp
(Aussen-T/F)
5.1 °C
11-04-2020  07:30:00
24.9 °C
09-04-2020  16:55:00
14.5 °C
Abs-Feuchte
(Aussen-T/F)
5.34 g/m*3
11-04-2020  07:00:00
9.6 g/m*3
10-04-2020  11:40:00
7.25 g/m*3
Windchill
(Aussen-T/F)
5.1 C
11-04-2020  07:30:00
24.9 C
09-04-2020  16:55:00
14.48 C

Die Daten stammen von einer Davis Vantage Pro 2 Wetter-Station und werden unter Linux mit der Software wview2wettercgi und aufbereitet. Alle Angaben erfolgen ohne Gewähr für ihre Vollständigkeit oder Richtigkeit.
Kontakt: Rainer Krienke krienke@uni-koblenz.de . Meine Webseiten an der Uni Koblenz oder privat.
Version: $Revision: 0.78 $